AirNav   Duncan Aviation - Near you to keep you flying
 
 1431 users online  

7M2 Mountain View Airport-Wilcox Memorial Field
Mountain View, Arkansas, USA

GOING TO MOUNTAIN VIEW?


FAA INFORMATION EFFECTIVE 26 JANUARY 2023

Location

FAA Identifier: 7M2
Lat/Long: 35-51-52.1290N 092-05-25.2190W
35-51.868817N 092-05.420317W
35.8644803,-92.0903386
(estimated)
Elevation: 805 ft. / 245 m (estimated)
Variation: 01E (2010)
From city: 2 miles E of MOUNTAIN VIEW, AR
Time zone: UTC -6 (UTC -5 during Daylight Saving Time)
Zip code: 72560

Airport Operations

Airport use: Open to the public
Activation date: 12/1959
Control tower: no
ARTCC: MEMPHIS CENTER
FSS: JONESBORO FLIGHT SERVICE STATION
NOTAMs facility: JBR (NOTAM-D service available)
Attendance: UNATNDD
FOR SVC AFT HRS CALL 501-203-8644.
Wind indicator: lighted
Segmented circle: no
Lights: DUSK-DAWN. VASI RY 27 OPERATES CONTINUOUSLY.
Beacon: white-green (lighted land airport)
Operates sunset to sunrise.
Taxiway lights: TWY EXIT LIGHT AT END RWY 09.

Airport Communications

CTAF/UNICOM: 122.7
  • APCH/DEP SVC PRVDD BY MEMPHIS ARTCC ON FREQS 126.85/281.55(HARRISON RCAG).

Airport Services

Fuel available: 100LL
100LL:SELF-SERVICE FUEL AVBL 24 HRS WITH CREDIT CARD.
Parking: hangars and tiedowns
Airframe service: MINOR
Powerplant service: MINOR
Bottled oxygen: HIGH

Runway Information

Runway 9/27

Dimensions: 4502 x 70 ft. / 1372 x 21 m
Surface: asphalt, in fair condition
Runway edge lights: medium intensity
RUNWAY 9  RUNWAY 27
Latitude: 35-51.885333N35-51.852267N
Longitude: 092-05.875667W092-04.964933W
Elevation: 804.0 ft.780.0 ft.
Traffic pattern: leftleft
Runway heading: 092 magnetic, 093 true272 magnetic, 273 true
Markings: nonprecision, in good conditionnonprecision, in good condition
Visual slope indicator: 2-box VASI on left (3.00 degrees glide path)
VASI RWY 09 TEMP OTS.
2-box VASI on left (4.00 degrees glide path)
VASI RWY 27 TEMP OTS.
Touchdown point: yes, no lightsyes, no lights
Obstructions: 24 ft. bldg, 520 ft. from runway, 110 ft. right of centerline, 13:1 slope to clear355 ft. tower, lighted, 5280 ft. from runway, 14:1 slope to clear
6-8 FT BRUSH APRX 50 FT FM RWY END.

Airport Ownership and Management from official FAA records

Ownership: Publicly-owned
Owner: CITY OF MOUNTAIN VIEW
CITY HALL
MOUNTAIN VIEW, AR 72560
Phone 870-269-3804
Manager: LARRY SNYDER
P.O. BOX 276
MOUNTAIN VIEW, AR 72560
Phone 501-203-8644

Airport Operational Statistics

Aircraft based on the field: 20
Single engine airplanes: 16
Multi engine airplanes: 2
Jet airplanes: 1
Ultralights: 1
    
Aircraft operations: avg 70/week *
49% transient general aviation
49% local general aviation
1% military
* for 12-month period ending 28 February 2021

Additional Remarks

RY 27 HAS A 15 FT DROPOFF 400 FT FM THLD.
DEER ON & INVOF ARPT.
FOR CD CTC MEMPHIS ARTCC AT 901-368-8453/8449.
(TDZ ELEV SOURCE, RWY 09) FTW FPO.
(TDZ ELEV SOURCE, RWY 27) FTW FPO.

Instrument Procedures

NOTE: All procedures below are presented as PDF files. If you need a reader for these files, you should download the free Adobe Reader.

NOT FOR NAVIGATION. Please procure official charts for flight.
FAA instrument procedures published for use from 26 January 2023 at 0901Z to 23 February 2023 at 0900z.

 
IAPs - Instrument Approach Procedures
RNAV (GPS) RWY 27   download
NOTE: Special Take-Off Minimums/Departure Procedures apply   download (390KB)

Other nearby airports with instrument procedures:

42A - Melbourne Municipal Airport - John E Miller Field (18 nm NE)
2A2 - Holley Mountain Airpark (20 nm SW)
KHBZ - Heber Springs Municipal Airport (22 nm S)
KBVX - Batesville Regional Airport (23 nm E)
KCCA - Clinton Municipal Airport (24 nm SW)
 
Loc | Ops | Rwys | IFR | FBO | Links
Com | Nav | Svcs | Stats | Notes
Area around 7M2 (Mountain View Airport-Wilcox Memorial Field)
 
Road maps at: MapQuest Bing Google
 
Aerial photo
WARNING: Photo may not be current or correct
Aerial photo of 7M2 (Mountain View Airport-Wilcox Memorial Field)
Photo taken 05-Aug-2012
looking northeast.

Do you have a better or more recent aerial photo of Mountain View Airport-Wilcox Memorial Field that you would like to share? If so, please send us your photo.

 
Sectional chart

 
Airport distance calculator
Flying to Mountain View Airport-Wilcox Memorial Field? Find the distance to fly.

From to 7M2

Sunrise and sunset
Times for 01-Feb-2023
 Local
(UTC-6)
 Zulu
(UTC)
Morning civil twilight06:4312:43
Sunrise07:1013:10
Sunset17:3423:34
Evening civil twilight18:0100:01

Current date and time
Zulu (UTC)  01-Feb-2023 22:18:28
Local (UTC-6)  01-Feb-2023 16:18:28
 
METAR
KBVX 
23nm E 
012156Z AUTO 00000KT 10SM FEW110 M01/M08 A3035 RMK AO2 SLP282 T10111078 FZRANO
KCCA 
24nm SW 
012155Z AUTO 14003KT 10SM FEW120 M00/M06 A3033 RMK AO2
KFLP 
31nm NW 
012156Z AUTO 00000KT 10SM CLR M01/M08 A3034 RMK AO2 SLP280 P0004 T10061083 FZRANO
KBPK 
35nm NW 
012153Z AUTO 00000KT 10SM CLR M01/M11 A3031 RMK AO2 SLP273 T10111111
KSRC 
41nm SE 
012156Z AUTO 03004KT 10SM OVC110 M02/M05 A3036 RMK AO2 PRESFR SLP283 T10171050 FZRANO
TAF
KBPK 
35nm NW 
011720Z 0118/0218 15004KT P6SM OVC120 FM020500 VRB03KT P6SM OVC100 FM021600 32003KT P6SM OVC180
NOTAMs
Click for the latest NOTAMs
NOTAMs are issued by the DoD/FAA and will open in a separate window not controlled by AirNav.

 

 
 

FBO, Fuel Providers, and Aircraft Ground Support

  
 Business Name 
 
 Contact 
 
 Services / Description 
 
Fuel Prices
 
Comments
  
City of Mountain View (FBO) 870-269-3142
no information available

If you are affiliated with City of Mountain View (FBO) and would like to show here your services, contact info, web link, logo, and more, click here
100LL
SS $6.85 
 Updated 25-Jan-2023
 
   1 read write
SS=Self service
Update Fuel Prices
 

Would you like to see your business listed on this page?

 If your business provides an interesting product or service to pilots, flight crews, aircraft, or users of the Mountain View Airport-Wilcox Memorial Field, you should consider listing it here.  To start the listing process, click on the button below
 
Add a business
 

Other Pages about Mountain View Airport-Wilcox Memorial Field

aros.com/...
 
Update a link
 
Copyright © AirNav, LLC. All rights reserved. Privacy Policy  Contact